sensor_id;sensor_type;location;lat;lon;timestamp;pressure;altitude;pressure_sealevel;temperature
68440;BMP180;55421;51.600;5.718;2023-07-31T00:01:09;223926.00;;;16.90
68440;BMP180;55421;51.600;5.718;2023-07-31T00:03:36;223929.00;;;16.90
68440;BMP180;55421;51.600;5.718;2023-07-31T00:06:02;223928.80;;;16.90
68440;BMP180;55421;51.600;5.718;2023-07-31T00:08:29;223926.00;;;16.90
68440;BMP180;55421;51.600;5.718;2023-07-31T00:10:55;223930.80;;;16.90
68440;BMP180;55421;51.600;5.718;2023-07-31T00:13:22;223933.20;;;16.90
68440;BMP180;55421;51.600;5.718;2023-07-31T00:15:48;223938.80;;;16.90
68440;BMP180;55421;51.600;5.718;2023-07-31T00:18:15;223934.80;;;16.90
68440;BMP180;55421;51.600;5.718;2023-07-31T00:20:41;223956.00;;;16.90
68440;BMP180;55421;51.600;5.718;2023-07-31T00:23:08;223950.59;;;16.90
68440;BMP180;55421;51.600;5.718;2023-07-31T00:25:34;224123.59;;;16.90
68440;BMP180;55421;51.600;5.718;2023-07-31T00:28:01;224279.20;;;16.90
68440;BMP180;55421;51.600;5.718;2023-07-31T00:30:27;224381.20;;;16.90
68440;BMP180;55421;51.600;5.718;2023-07-31T00:32:53;224568.41;;;16.90
68440;BMP180;55421;51.600;5.718;2023-07-31T00:35:20;227151.00;;;16.90
68440;BMP180;55421;51.600;5.718;2023-07-31T00:37:46;227366.00;;;16.90
68440;BMP180;55421;51.600;5.718;2023-07-31T00:40:13;228096.00;;;16.90
68440;BMP180;55421;51.600;5.718;2023-07-31T00:42:40;231975.20;;;16.90
68440;BMP180;55421;51.600;5.718;2023-07-31T00:45:07;235323.00;;;16.90
68440;BMP180;55421;51.600;5.718;2023-07-31T00:47:33;235195.20;;;16.90
68440;BMP180;55421;51.600;5.718;2023-07-31T00:50:00;236730.80;;;16.90
68440;BMP180;55421;51.600;5.718;2023-07-31T00:52:27;191216.20;;;16.90
68440;BMP180;55421;51.600;5.718;2023-07-31T00:54:53;233845.80;;;16.90
68440;BMP180;55421;51.600;5.718;2023-07-31T00:57:20;238962.00;;;16.90
68440;BMP180;55421;51.600;5.718;2023-07-31T00:59:46;237170.80;;;16.90
68440;BMP180;55421;51.600;5.718;2023-07-31T01:02:13;235253.00;;;16.90
68440;BMP180;55421;51.600;5.718;2023-07-31T01:04:42;234895.20;;;16.90
68440;BMP180;55421;51.600;5.718;2023-07-31T01:07:47;234011.80;;;16.90
68440;BMP180;55421;51.600;5.718;2023-07-31T01:10:22;234147.80;;;16.82
68440;BMP180;55421;51.600;5.718;2023-07-31T01:12:51;232842.80;;;16.82
68440;BMP180;55421;51.600;5.718;2023-07-31T01:15:19;233159.80;;;16.86
68440;BMP180;55421;51.600;5.718;2023-07-31T01:17:47;234971.59;;;16.90
68440;BMP180;55421;51.600;5.718;2023-07-31T01:20:25;235088.20;;;16.90
68440;BMP180;55421;51.600;5.718;2023-07-31T01:23:21;235072.80;;;16.80
68440;BMP180;55421;51.600;5.718;2023-07-31T01:25:56;234798.80;;;16.80
68440;BMP180;55421;51.600;5.718;2023-07-31T01:28:37;239676.59;;;16.80
68440;BMP180;55421;51.600;5.718;2023-07-31T01:31:10;239640.80;;;16.80
68440;BMP180;55421;51.600;5.718;2023-07-31T01:33:37;235831.00;;;16.80
68440;BMP180;55421;51.600;5.718;2023-07-31T01:36:05;240007.20;;;16.80
68440;BMP180;55421;51.600;5.718;2023-07-31T01:38:32;196789.41;;;16.80
68440;BMP180;55421;51.600;5.718;2023-07-31T01:40:58;147693.41;;;16.80
68440;BMP180;55421;51.600;5.718;2023-07-31T01:43:24;147127.00;;;16.80
68440;BMP180;55421;51.600;5.718;2023-07-31T01:45:51;148099.00;;;16.80
68440;BMP180;55421;51.600;5.718;2023-07-31T01:48:17;101054.80;;;16.74
68440;BMP180;55421;51.600;5.718;2023-07-31T01:50:46;104331.80;;;16.70
68440;BMP180;55421;51.600;5.718;2023-07-31T01:53:12;57580.60;;;16.70
68440;BMP180;55421;51.600;5.718;2023-07-31T01:55:39;56324.00;;;16.70
68440;BMP180;55421;51.600;5.718;2023-07-31T01:58:06;151178.59;;;16.70
68440;BMP180;55421;51.600;5.718;2023-07-31T02:00:32;104183.60;;;16.70
68440;BMP180;55421;51.600;5.718;2023-07-31T02:02:59;56254.00;;;16.70
68440;BMP180;55421;51.600;5.718;2023-07-31T02:05:26;54607.20;;;16.70
68440;BMP180;55421;51.600;5.718;2023-07-31T02:07:52;103651.80;;;16.70
68440;BMP180;55421;51.600;5.718;2023-07-31T02:10:19;56945.20;;;16.70
68440;BMP180;55421;51.600;5.718;2023-07-31T02:12:45;103703.60;;;16.70
68440;BMP180;55421;51.600;5.718;2023-07-31T02:15:12;58135.40;;;16.70
68440;BMP180;55421;51.600;5.718;2023-07-31T02:17:38;59620.80;;;16.70
68440;BMP180;55421;51.600;5.718;2023-07-31T02:20:06;20301.00;;;16.70
68440;BMP180;55421;51.600;5.718;2023-07-31T02:22:32;20523.40;;;16.70
68440;BMP180;55421;51.600;5.718;2023-07-31T02:24:59;21626.60;;;16.60
68440;BMP180;55421;51.600;5.718;2023-07-31T02:27:25;21027.80;;;16.60
68440;BMP180;55421;51.600;5.718;2023-07-31T02:29:53;21941.80;;;16.60
68440;BMP180;55421;51.600;5.718;2023-07-31T02:32:21;27536.80;;;16.60
68440;BMP180;55421;51.600;5.718;2023-07-31T02:34:47;28120.00;;;16.60
68440;BMP180;55421;51.600;5.718;2023-07-31T02:37:14;33862.00;;;16.60
68440;BMP180;55421;51.600;5.718;2023-07-31T02:39:40;32039.80;;;16.60
68440;BMP180;55421;51.600;5.718;2023-07-31T02:42:07;28394.80;;;16.60
68440;BMP180;55421;51.600;5.718;2023-07-31T02:44:33;37056.40;;;16.60
68440;BMP180;55421;51.600;5.718;2023-07-31T02:47:00;55910.20;;;16.58
68440;BMP180;55421;51.600;5.718;2023-07-31T02:49:26;56818.60;;;16.60
68440;BMP180;55421;51.600;5.718;2023-07-31T02:51:53;65214.20;;;16.60
68440;BMP180;55421;51.600;5.718;2023-07-31T02:54:19;66884.40;;;16.56
68440;BMP180;55421;51.600;5.718;2023-07-31T02:56:48;68657.20;;;16.54
68440;BMP180;55421;51.600;5.718;2023-07-31T02:59:14;57489.40;;;16.50
68440;BMP180;55421;51.600;5.718;2023-07-31T03:01:41;52276.20;;;16.50
68440;BMP180;55421;51.600;5.718;2023-07-31T03:04:07;53628.40;;;16.50
68440;BMP180;55421;51.600;5.718;2023-07-31T03:06:34;45277.00;;;16.50
68440;BMP180;55421;51.600;5.718;2023-07-31T03:09:00;55528.60;;;16.50
68440;BMP180;55421;51.600;5.718;2023-07-31T03:11:27;64980.00;;;16.50
68440;BMP180;55421;51.600;5.718;2023-07-31T03:13:53;57437.60;;;16.50
68440;BMP180;55421;51.600;5.718;2023-07-31T03:16:20;54477.60;;;16.48
68440;BMP180;55421;51.600;5.718;2023-07-31T03:18:46;56114.20;;;16.40
68440;BMP180;55421;51.600;5.718;2023-07-31T03:21:14;51104.40;;;16.40
68440;BMP180;55421;51.600;5.718;2023-07-31T03:23:40;40095.00;;;16.40
68440;BMP180;55421;51.600;5.718;2023-07-31T03:26:07;34174.40;;;16.40
68440;BMP180;55421;51.600;5.718;2023-07-31T03:28:34;36491.40;;;16.50
68440;BMP180;55421;51.600;5.718;2023-07-31T03:31:00;32201.20;;;16.48
68440;BMP180;55421;51.600;5.718;2023-07-31T03:33:27;33729.60;;;16.44
68440;BMP180;55421;51.600;5.718;2023-07-31T03:35:54;29565.20;;;16.48
68440;BMP180;55421;51.600;5.718;2023-07-31T03:38:20;24941.60;;;16.46
68440;BMP180;55421;51.600;5.718;2023-07-31T03:40:47;23999.40;;;16.50
68440;BMP180;55421;51.600;5.718;2023-07-31T03:43:15;27912.00;;;16.50
68440;BMP180;55421;51.600;5.718;2023-07-31T03:45:42;30129.20;;;16.50
68440;BMP180;55421;51.600;5.718;2023-07-31T03:48:08;33034.40;;;16.50
68440;BMP180;55421;51.600;5.718;2023-07-31T03:50:35;32699.80;;;16.50
68440;BMP180;55421;51.600;5.718;2023-07-31T03:53:01;34025.40;;;16.50
68440;BMP180;55421;51.600;5.718;2023-07-31T03:55:28;39461.80;;;16.50
68440;BMP180;55421;51.600;5.718;2023-07-31T03:57:54;38770.00;;;16.50
68440;BMP180;55421;51.600;5.718;2023-07-31T04:00:21;43191.00;;;16.50
68440;BMP180;55421;51.600;5.718;2023-07-31T04:02:48;41805.40;;;16.50
68440;BMP180;55421;51.600;5.718;2023-07-31T04:05:15;39567.60;;;16.60
68440;BMP180;55421;51.600;5.718;2023-07-31T04:07:41;43343.80;;;16.60
68440;BMP180;55421;51.600;5.718;2023-07-31T04:10:08;41230.40;;;16.56
68440;BMP180;55421;51.600;5.718;2023-07-31T04:12:35;46819.80;;;16.60
68440;BMP180;55421;51.600;5.718;2023-07-31T04:15:01;41432.40;;;16.60
68440;BMP180;55421;51.600;5.718;2023-07-31T04:17:28;31494.80;;;16.60
68440;BMP180;55421;51.600;5.718;2023-07-31T04:19:54;30160.60;;;16.60
68440;BMP180;55421;51.600;5.718;2023-07-31T04:22:21;36560.40;;;16.60
68440;BMP180;55421;51.600;5.718;2023-07-31T04:24:47;32058.20;;;16.70
68440;BMP180;55421;51.600;5.718;2023-07-31T04:27:13;28267.20;;;16.70
68440;BMP180;55421;51.600;5.718;2023-07-31T04:29:40;30490.00;;;16.70
68440;BMP180;55421;51.600;5.718;2023-07-31T04:32:08;25043.20;;;16.70
68440;BMP180;55421;51.600;5.718;2023-07-31T04:34:35;24206.80;;;16.70
68440;BMP180;55421;51.600;5.718;2023-07-31T04:37:01;19289.40;;;16.70
68440;BMP180;55421;51.600;5.718;2023-07-31T04:39:28;14855.60;;;16.70
68440;BMP180;55421;51.600;5.718;2023-07-31T04:41:54;60502.00;;;16.70
68440;BMP180;55421;51.600;5.718;2023-07-31T04:44:20;10562.20;;;16.70
68440;BMP180;55421;51.600;5.718;2023-07-31T04:46:47;56133.80;;;16.70
68440;BMP180;55421;51.600;5.718;2023-07-31T04:49:13;105162.40;;;16.78
68440;BMP180;55421;51.600;5.718;2023-07-31T04:51:40;102252.00;;;16.80
68440;BMP180;55421;51.600;5.718;2023-07-31T04:54:06;55655.80;;;16.80
68440;BMP180;55421;51.600;5.718;2023-07-31T04:56:33;104256.00;;;16.80
68440;BMP180;55421;51.600;5.718;2023-07-31T04:58:59;57931.20;;;16.86
68440;BMP180;55421;51.600;5.718;2023-07-31T05:01:26;8907.00;;;16.90
68440;BMP180;55421;51.600;5.718;2023-07-31T05:03:52;11610.60;;;16.90
68440;BMP180;55421;51.600;5.718;2023-07-31T05:06:19;56686.20;;;16.90
68440;BMP180;55421;51.600;5.718;2023-07-31T05:08:46;56314.00;;;16.90
68440;BMP180;55421;51.600;5.718;2023-07-31T05:11:13;57149.60;;;16.90
68440;BMP180;55421;51.600;5.718;2023-07-31T05:13:39;11217.00;;;16.92
68440;BMP180;55421;51.600;5.718;2023-07-31T05:16:06;10819.60;;;17.00
68440;BMP180;55421;51.600;5.718;2023-07-31T05:18:32;12665.60;;;17.00
68440;BMP180;55421;51.600;5.718;2023-07-31T05:20:59;58671.80;;;17.00
68440;BMP180;55421;51.600;5.718;2023-07-31T05:23:25;11304.40;;;17.04
68440;BMP180;55421;51.600;5.718;2023-07-31T05:25:51;15998.60;;;17.10
68440;BMP180;55421;51.600;5.718;2023-07-31T05:28:18;16755.60;;;17.10
68440;BMP180;55421;51.600;5.718;2023-07-31T05:30:44;60331.60;;;17.10
68440;BMP180;55421;51.600;5.718;2023-07-31T05:33:11;147881.41;;;17.10
68440;BMP180;55421;51.600;5.718;2023-07-31T05:35:37;196055.41;;;17.10
68440;BMP180;55421;51.600;5.718;2023-07-31T05:38:04;191265.41;;;17.00
68440;BMP180;55421;51.600;5.718;2023-07-31T05:40:33;240383.80;;;17.08
68440;BMP180;55421;51.600;5.718;2023-07-31T05:42:59;239582.00;;;17.02
68440;BMP180;55421;51.600;5.718;2023-07-31T05:45:26;191490.80;;;17.04
68440;BMP180;55421;51.600;5.718;2023-07-31T05:47:52;194240.20;;;17.00
68440;BMP180;55421;51.600;5.718;2023-07-31T05:50:19;149075.00;;;17.02
68440;BMP180;55421;51.600;5.718;2023-07-31T05:52:45;9043.20;;;17.08
68440;BMP180;55421;51.600;5.718;2023-07-31T05:55:12;17450.20;;;17.10
68440;BMP180;55421;51.600;5.718;2023-07-31T05:57:38;26750.40;;;17.04
68440;BMP180;55421;51.600;5.718;2023-07-31T06:00:05;28673.80;;;17.00
68440;BMP180;55421;51.600;5.718;2023-07-31T06:02:32;25960.40;;;17.00
68440;BMP180;55421;51.600;5.718;2023-07-31T06:05:04;36476.60;;;17.00
68440;BMP180;55421;51.600;5.718;2023-07-31T06:07:32;33874.40;;;16.94
68440;BMP180;55421;51.600;5.718;2023-07-31T06:09:58;19585.00;;;16.90
68440;BMP180;55421;51.600;5.718;2023-07-31T06:12:35;11487.00;;;16.90
68440;BMP180;55421;51.600;5.718;2023-07-31T06:15:03;9288.60;;;16.90
68440;BMP180;55421;51.600;5.718;2023-07-31T06:17:30;14582.00;;;16.86
68440;BMP180;55421;51.600;5.718;2023-07-31T06:19:56;14138.80;;;16.80
68440;BMP180;55421;51.600;5.718;2023-07-31T06:22:23;16355.20;;;16.80
68440;BMP180;55421;51.600;5.718;2023-07-31T06:24:49;24425.80;;;16.80
68440;BMP180;55421;51.600;5.718;2023-07-31T06:27:16;27225.40;;;16.80
68440;BMP180;55421;51.600;5.718;2023-07-31T06:29:42;24500.80;;;16.80
68440;BMP180;55421;51.600;5.718;2023-07-31T06:32:09;26299.80;;;16.84
68440;BMP180;55421;51.600;5.718;2023-07-31T06:34:35;27121.60;;;16.90
68440;BMP180;55421;51.600;5.718;2023-07-31T06:37:02;24690.80;;;16.90
68440;BMP180;55421;51.600;5.718;2023-07-31T06:39:28;22769.60;;;16.90
68440;BMP180;55421;51.600;5.718;2023-07-31T06:41:55;28580.00;;;16.90
68440;BMP180;55421;51.600;5.718;2023-07-31T06:44:21;40891.00;;;16.90
68440;BMP180;55421;51.600;5.718;2023-07-31T06:46:48;43447.00;;;16.96
68440;BMP180;55421;51.600;5.718;2023-07-31T06:49:14;45801.80;;;16.98
68440;BMP180;55421;51.600;5.718;2023-07-31T06:51:43;50070.00;;;17.00
68440;BMP180;55421;51.600;5.718;2023-07-31T06:54:10;55721.00;;;17.00
68440;BMP180;55421;51.600;5.718;2023-07-31T06:56:37;64557.00;;;17.00
68440;BMP180;55421;51.600;5.718;2023-07-31T06:59:04;65585.40;;;17.10
68440;BMP180;55421;51.600;5.718;2023-07-31T07:01:30;69142.80;;;17.10
68440;BMP180;55421;51.600;5.718;2023-07-31T07:03:56;71796.60;;;17.10
68440;BMP180;55421;51.600;5.718;2023-07-31T07:06:23;78476.40;;;17.10
68440;BMP180;55421;51.600;5.718;2023-07-31T07:08:49;83009.80;;;17.10
68440;BMP180;55421;51.600;5.718;2023-07-31T07:11:16;83777.40;;;17.10
68440;BMP180;55421;51.600;5.718;2023-07-31T07:13:42;78818.40;;;17.10
68440;BMP180;55421;51.600;5.718;2023-07-31T07:16:09;83332.60;;;17.10
68440;BMP180;55421;51.600;5.718;2023-07-31T07:18:36;80268.20;;;17.10
68440;BMP180;55421;51.600;5.718;2023-07-31T07:21:03;76544.60;;;17.10
68440;BMP180;55421;51.600;5.718;2023-07-31T07:23:29;76488.40;;;17.10
68440;BMP180;55421;51.600;5.718;2023-07-31T07:25:56;83795.20;;;17.10
68440;BMP180;55421;51.600;5.718;2023-07-31T07:28:22;92947.60;;;17.20
68440;BMP180;55421;51.600;5.718;2023-07-31T07:30:52;91722.80;;;17.20
68440;BMP180;55421;51.600;5.718;2023-07-31T07:33:19;92641.00;;;17.20
68440;BMP180;55421;51.600;5.718;2023-07-31T07:35:46;92037.00;;;17.22
68440;BMP180;55421;51.600;5.718;2023-07-31T07:38:14;94881.00;;;17.28
68440;BMP180;55421;51.600;5.718;2023-07-31T07:40:41;96314.00;;;17.30
68440;BMP180;55421;51.600;5.718;2023-07-31T07:43:08;99142.40;;;17.30
68440;BMP180;55421;51.600;5.718;2023-07-31T07:45:34;99773.20;;;17.30
68440;BMP180;55421;51.600;5.718;2023-07-31T07:48:01;102697.60;;;17.30
68440;BMP180;55421;51.600;5.718;2023-07-31T07:50:27;112544.60;;;17.36
68440;BMP180;55421;51.600;5.718;2023-07-31T07:52:54;114550.60;;;17.30
68440;BMP180;55421;51.600;5.718;2023-07-31T07:55:20;114360.60;;;17.30
68440;BMP180;55421;51.600;5.718;2023-07-31T07:57:47;119621.20;;;17.30
68440;BMP180;55421;51.600;5.718;2023-07-31T08:00:16;118058.20;;;17.30
68440;BMP180;55421;51.600;5.718;2023-07-31T08:02:43;115215.00;;;17.30
68440;BMP180;55421;51.600;5.718;2023-07-31T08:05:10;118717.20;;;17.30
68440;BMP180;55421;51.600;5.718;2023-07-31T08:07:36;115120.00;;;17.30
68440;BMP180;55421;51.600;5.718;2023-07-31T08:10:03;115572.40;;;17.30
68440;BMP180;55421;51.600;5.718;2023-07-31T08:12:30;119440.80;;;17.30
68440;BMP180;55421;51.600;5.718;2023-07-31T08:14:56;116318.80;;;17.30
68440;BMP180;55421;51.600;5.718;2023-07-31T08:17:23;115323.00;;;17.26
68440;BMP180;55421;51.600;5.718;2023-07-31T08:19:50;115291.60;;;17.22
68440;BMP180;55421;51.600;5.718;2023-07-31T08:22:16;115321.20;;;17.30
68440;BMP180;55421;51.600;5.718;2023-07-31T08:24:43;124937.80;;;17.30
68440;BMP180;55421;51.600;5.718;2023-07-31T08:27:09;127593.60;;;17.32
68440;BMP180;55421;51.600;5.718;2023-07-31T08:29:36;130910.80;;;17.40
68440;BMP180;55421;51.600;5.718;2023-07-31T08:32:02;132211.20;;;17.40
68440;BMP180;55421;51.600;5.718;2023-07-31T08:34:29;130544.20;;;17.40
68440;BMP180;55421;51.600;5.718;2023-07-31T08:36:55;133099.80;;;17.50
68440;BMP180;55421;51.600;5.718;2023-07-31T08:39:22;137307.59;;;17.50
68440;BMP180;55421;51.600;5.718;2023-07-31T08:41:48;131883.41;;;17.50
68440;BMP180;55421;51.600;5.718;2023-07-31T08:44:15;130978.20;;;17.44
68440;BMP180;55421;51.600;5.718;2023-07-31T08:46:43;132201.59;;;17.50
68440;BMP180;55421;51.600;5.718;2023-07-31T08:49:10;130442.80;;;17.50
68440;BMP180;55421;51.600;5.718;2023-07-31T08:51:37;127890.80;;;17.50
68440;BMP180;55421;51.600;5.718;2023-07-31T08:54:04;121693.20;;;17.50
68440;BMP180;55421;51.600;5.718;2023-07-31T08:56:32;121095.20;;;17.50
68440;BMP180;55421;51.600;5.718;2023-07-31T08:59:02;119431.20;;;17.54
68440;BMP180;55421;51.600;5.718;2023-07-31T09:01:35;123346.00;;;17.52
68440;BMP180;55421;51.600;5.718;2023-07-31T09:04:04;129134.80;;;17.50
68440;BMP180;55421;51.600;5.718;2023-07-31T09:06:31;131481.59;;;17.54
68440;BMP180;55421;51.600;5.718;2023-07-31T09:08:58;132179.80;;;17.60
68440;BMP180;55421;51.600;5.718;2023-07-31T09:11:25;130265.40;;;17.58
68440;BMP180;55421;51.600;5.718;2023-07-31T09:13:53;129455.00;;;17.50
68440;BMP180;55421;51.600;5.718;2023-07-31T09:16:29;132964.80;;;17.50
68440;BMP180;55421;51.600;5.718;2023-07-31T09:18:58;132645.59;;;17.50
68440;BMP180;55421;51.600;5.718;2023-07-31T09:21:28;132769.20;;;17.50
68440;BMP180;55421;51.600;5.718;2023-07-31T09:23:54;131766.41;;;17.50
68440;BMP180;55421;51.600;5.718;2023-07-31T09:26:36;131540.41;;;17.50
68440;BMP180;55421;51.600;5.718;2023-07-31T09:29:18;131911.41;;;17.50
68440;BMP180;55421;51.600;5.718;2023-07-31T09:31:51;132975.80;;;17.50
68440;BMP180;55421;51.600;5.718;2023-07-31T09:34:18;133057.20;;;17.50
68440;BMP180;55421;51.600;5.718;2023-07-31T09:36:50;133977.59;;;17.60
68440;BMP180;55421;51.600;5.718;2023-07-31T09:39:18;134517.41;;;17.60
68440;BMP180;55421;51.600;5.718;2023-07-31T09:41:59;135343.59;;;17.70
68440;BMP180;55421;51.600;5.718;2023-07-31T09:44:44;137955.41;;;17.72
68440;BMP180;55421;51.600;5.718;2023-07-31T09:47:26;137828.20;;;17.80
68440;BMP180;55421;51.600;5.718;2023-07-31T09:49:53;139371.59;;;17.80
68440;BMP180;55421;51.600;5.718;2023-07-31T09:52:20;141696.80;;;17.80
68440;BMP180;55421;51.600;5.718;2023-07-31T09:54:46;140914.20;;;17.80
68440;BMP180;55421;51.600;5.718;2023-07-31T09:57:17;141379.20;;;17.82
68440;BMP180;55421;51.600;5.718;2023-07-31T09:59:55;143262.59;;;17.90
68440;BMP180;55421;51.600;5.718;2023-07-31T10:02:22;143589.59;;;17.96
68440;BMP180;55421;51.600;5.718;2023-07-31T10:04:50;144922.59;;;18.00
68440;BMP180;55421;51.600;5.718;2023-07-31T10:07:18;145005.00;;;18.04
68440;BMP180;55421;51.600;5.718;2023-07-31T10:09:47;147138.59;;;18.10
68440;BMP180;55421;51.600;5.718;2023-07-31T10:12:22;147208.41;;;18.10
68440;BMP180;55421;51.600;5.718;2023-07-31T10:14:54;146983.41;;;18.16
68440;BMP180;55421;51.600;5.718;2023-07-31T10:17:25;148820.80;;;18.20
68440;BMP180;55421;51.600;5.718;2023-07-31T10:19:57;151649.00;;;18.30
68440;BMP180;55421;51.600;5.718;2023-07-31T10:22:26;155376.41;;;18.46
68440;BMP180;55421;51.600;5.718;2023-07-31T10:24:57;152405.00;;;18.50
68440;BMP180;55421;51.600;5.718;2023-07-31T10:27:24;152183.20;;;18.50
68440;BMP180;55421;51.600;5.718;2023-07-31T10:29:54;152480.80;;;18.50
68440;BMP180;55421;51.600;5.718;2023-07-31T10:32:23;149982.20;;;18.50
68440;BMP180;55421;51.600;5.718;2023-07-31T10:34:51;154215.20;;;18.50
68440;BMP180;55421;51.600;5.718;2023-07-31T10:37:28;153325.59;;;18.54
68440;BMP180;55421;51.600;5.718;2023-07-31T10:40:00;153973.80;;;18.60
68440;BMP180;55421;51.600;5.718;2023-07-31T10:42:32;151345.20;;;18.60
68440;BMP180;55421;51.600;5.718;2023-07-31T10:45:07;147798.20;;;18.60
68440;BMP180;55421;51.600;5.718;2023-07-31T10:47:38;147794.00;;;18.70
68440;BMP180;55421;51.600;5.718;2023-07-31T10:50:20;148436.59;;;18.70
68440;BMP180;55421;51.600;5.718;2023-07-31T10:52:50;150438.20;;;18.70
68440;BMP180;55421;51.600;5.718;2023-07-31T10:58:09;154601.80;;;18.80
68440;BMP180;55421;51.600;5.718;2023-07-31T11:00:42;157246.59;;;18.80
68440;BMP180;55421;51.600;5.718;2023-07-31T11:03:10;157891.80;;;18.80
68440;BMP180;55421;51.600;5.718;2023-07-31T11:06:02;159395.41;;;18.80
68440;BMP180;55421;51.600;5.718;2023-07-31T11:08:36;159010.20;;;18.80
68440;BMP180;55421;51.600;5.718;2023-07-31T11:11:11;159498.20;;;18.80
68440;BMP180;55421;51.600;5.718;2023-07-31T11:13:47;160725.00;;;18.80
68440;BMP180;55421;51.600;5.718;2023-07-31T11:16:21;159929.20;;;18.80
68440;BMP180;55421;51.600;5.718;2023-07-31T11:18:49;159301.41;;;18.90
68440;BMP180;55421;51.600;5.718;2023-07-31T11:21:21;161048.41;;;19.00
68440;BMP180;55421;51.600;5.718;2023-07-31T11:23:51;160243.00;;;19.08
68440;BMP180;55421;51.600;5.718;2023-07-31T11:26:18;159951.00;;;19.20
68440;BMP180;55421;51.600;5.718;2023-07-31T11:28:49;161341.80;;;19.30
68440;BMP180;55421;51.600;5.718;2023-07-31T11:31:17;161896.00;;;19.40
68440;BMP180;55421;51.600;5.718;2023-07-31T11:33:45;161937.00;;;19.50
68440;BMP180;55421;51.600;5.718;2023-07-31T11:36:20;161975.00;;;19.50
68440;BMP180;55421;51.600;5.718;2023-07-31T11:38:47;161551.80;;;19.54
68440;BMP180;55421;51.600;5.718;2023-07-31T11:41:15;160234.20;;;19.60
68440;BMP180;55421;51.600;5.718;2023-07-31T11:43:42;160071.00;;;19.60
68440;BMP180;55421;51.600;5.718;2023-07-31T11:46:09;159518.00;;;19.60
68440;BMP180;55421;51.600;5.718;2023-07-31T11:48:37;159329.41;;;19.60
68440;BMP180;55421;51.600;5.718;2023-07-31T11:51:08;157385.80;;;19.60
68440;BMP180;55421;51.600;5.718;2023-07-31T11:53:51;158242.59;;;19.66
68440;BMP180;55421;51.600;5.718;2023-07-31T11:56:21;157536.00;;;19.70
68440;BMP180;55421;51.600;5.718;2023-07-31T11:58:59;157166.20;;;19.80
68440;BMP180;55421;51.600;5.718;2023-07-31T12:01:29;158289.41;;;19.82
68440;BMP180;55421;51.600;5.718;2023-07-31T12:03:56;158339.00;;;19.90
68440;BMP180;55421;51.600;5.718;2023-07-31T12:06:33;157589.20;;;19.90
68440;BMP180;55421;51.600;5.718;2023-07-31T12:09:04;158082.80;;;19.90
68440;BMP180;55421;51.600;5.718;2023-07-31T12:11:44;157683.00;;;19.90
68440;BMP180;55421;51.600;5.718;2023-07-31T12:14:21;157393.80;;;19.80
68440;BMP180;55421;51.600;5.718;2023-07-31T12:17:00;156695.59;;;19.76
68440;BMP180;55421;51.600;5.718;2023-07-31T12:19:27;156204.00;;;19.70
68440;BMP180;55421;51.600;5.718;2023-07-31T12:21:59;155518.00;;;19.70
68440;BMP180;55421;51.600;5.718;2023-07-31T12:24:27;155712.59;;;19.70
68440;BMP180;55421;51.600;5.718;2023-07-31T12:26:53;155876.41;;;19.70
68440;BMP180;55421;51.600;5.718;2023-07-31T12:29:21;155172.00;;;19.70
68440;BMP180;55421;51.600;5.718;2023-07-31T12:31:47;154824.00;;;19.70
68440;BMP180;55421;51.600;5.718;2023-07-31T12:34:16;154263.59;;;19.60
68440;BMP180;55421;51.600;5.718;2023-07-31T12:36:47;154918.20;;;19.60
68440;BMP180;55421;51.600;5.718;2023-07-31T12:39:17;154709.59;;;19.68
68440;BMP180;55421;51.600;5.718;2023-07-31T12:41:43;154055.41;;;19.70
68440;BMP180;55421;51.600;5.718;2023-07-31T12:44:09;154830.59;;;19.70
68440;BMP180;55421;51.600;5.718;2023-07-31T12:46:36;154039.00;;;19.80
68440;BMP180;55421;51.600;5.718;2023-07-31T12:49:02;153792.80;;;19.80
68440;BMP180;55421;51.600;5.718;2023-07-31T12:51:29;155313.41;;;19.78
68440;BMP180;55421;51.600;5.718;2023-07-31T12:53:55;154052.80;;;19.78
68440;BMP180;55421;51.600;5.718;2023-07-31T12:56:22;154447.80;;;19.80
68440;BMP180;55421;51.600;5.718;2023-07-31T12:58:48;153357.20;;;19.80
68440;BMP180;55421;51.600;5.718;2023-07-31T13:01:15;153772.41;;;19.70
68440;BMP180;55421;51.600;5.718;2023-07-31T13:03:41;152112.00;;;19.70
68440;BMP180;55421;51.600;5.718;2023-07-31T13:06:07;151550.20;;;19.62
68440;BMP180;55421;51.600;5.718;2023-07-31T13:08:34;150871.41;;;19.60
68440;BMP180;55421;51.600;5.718;2023-07-31T13:11:00;149277.00;;;19.60
68440;BMP180;55421;51.600;5.718;2023-07-31T13:13:27;148331.20;;;19.60
68440;BMP180;55421;51.600;5.718;2023-07-31T13:15:53;146519.59;;;19.50
68440;BMP180;55421;51.600;5.718;2023-07-31T13:18:20;147769.00;;;19.50
68440;BMP180;55421;51.600;5.718;2023-07-31T13:20:46;145739.00;;;19.50
68440;BMP180;55421;51.600;5.718;2023-07-31T13:23:12;145927.80;;;19.50
68440;BMP180;55421;51.600;5.718;2023-07-31T13:25:39;144925.20;;;19.48
68440;BMP180;55421;51.600;5.718;2023-07-31T13:28:05;147125.41;;;19.44
68440;BMP180;55421;51.600;5.718;2023-07-31T13:30:33;145895.80;;;19.42
68440;BMP180;55421;51.600;5.718;2023-07-31T13:32:59;148446.41;;;19.48
68440;BMP180;55421;51.600;5.718;2023-07-31T13:35:26;151741.59;;;19.50
68440;BMP180;55421;51.600;5.718;2023-07-31T13:37:52;151611.00;;;19.50
68440;BMP180;55421;51.600;5.718;2023-07-31T13:40:19;153958.80;;;19.60
68440;BMP180;55421;51.600;5.718;2023-07-31T13:42:45;154465.20;;;19.60
68440;BMP180;55421;51.600;5.718;2023-07-31T13:45:13;155399.59;;;19.70
68440;BMP180;55421;51.600;5.718;2023-07-31T13:47:40;156267.41;;;19.70
68440;BMP180;55421;51.600;5.718;2023-07-31T13:50:07;155123.20;;;19.70
68440;BMP180;55421;51.600;5.718;2023-07-31T13:52:34;153105.20;;;19.70
68440;BMP180;55421;51.600;5.718;2023-07-31T13:55:00;154225.00;;;19.70
68440;BMP180;55421;51.600;5.718;2023-07-31T13:57:26;153963.80;;;19.70
68440;BMP180;55421;51.600;5.718;2023-07-31T13:59:53;153005.80;;;19.60
68440;BMP180;55421;51.600;5.718;2023-07-31T14:02:20;152120.41;;;19.60
68440;BMP180;55421;51.600;5.718;2023-07-31T14:04:46;150697.80;;;19.60
68440;BMP180;55421;51.600;5.718;2023-07-31T14:07:12;147961.59;;;19.50
68440;BMP180;55421;51.600;5.718;2023-07-31T14:09:39;142794.00;;;19.40